Time,TemperatureF,DewpointF,PressureIn,WindDirection,WindDirectionDegrees,WindSpeedMPH,WindSpeedGustMPH,Humidity,HourlyPrecipIn,Conditions,Clouds,dailyrainin,SoftwareType,DateUTC
2013-04-04 00:05:00,39.7,21.0,30.29,South,188,6.0,10.0,47,0.00,,,0.00,weatherlink.com 1.10,2013-04-04 06:05:00,
2013-04-04 00:20:00,39.6,21.0,30.29,SSE,163,9.0,13.0,47,0.00,,,0.00,weatherlink.com 1.10,2013-04-04 06:20:00,
2013-04-04 00:35:00,39.7,20.0,30.29,SSW,202,7.0,14.0,46,0.00,,,0.00,weatherlink.com 1.10,2013-04-04 06:35:00,
2013-04-04 00:50:00,39.4,21.0,30.29,South,174,6.0,13.0,47,0.00,,,0.00,weatherlink.com 1.10,2013-04-04 06:50:00,
2013-04-04 01:05:00,39.3,20.0,30.29,SSE,164,6.0,10.0,47,0.00,,,0.00,weatherlink.com 1.10,2013-04-04 07:05:00,
2013-04-04 01:20:00,38.6,21.0,30.29,South,179,5.0,8.0,49,0.00,,,0.00,weatherlink.com 1.10,2013-04-04 07:20:00,
2013-04-04 01:35:00,38.0,21.0,30.29,SSW,192,5.0,10.0,50,0.00,,,0.00,weatherlink.com 1.10,2013-04-04 07:35:00,
2013-04-04 01:50:00,38.1,21.0,30.29,South,171,6.0,11.0,50,0.00,,,0.00,weatherlink.com 1.10,2013-04-04 07:50:00,
2013-04-04 02:05:00,38.0,21.0,30.29,SSE,165,5.0,8.0,50,0.00,,,0.00,weatherlink.com 1.10,2013-04-04 08:05:00,
2013-04-04 02:20:00,38.0,21.0,30.29,South,173,3.0,9.0,51,0.00,,,0.00,weatherlink.com 1.10,2013-04-04 08:20:00,
2013-04-04 02:35:00,37.9,21.0,30.29,South,173,7.0,9.0,51,0.00,,,0.00,weatherlink.com 1.10,2013-04-04 08:35:00,
2013-04-04 02:50:00,37.9,21.0,30.29,South,180,3.0,11.0,51,0.00,,,0.00,weatherlink.com 1.10,2013-04-04 08:50:00,
2013-04-04 03:05:00,37.8,21.0,30.29,South,173,5.0,9.0,52,0.00,,,0.00,weatherlink.com 1.10,2013-04-04 09:05:00,
2013-04-04 03:20:00,36.9,21.0,30.29,SSW,198,5.0,8.0,54,0.00,,,0.00,weatherlink.com 1.10,2013-04-04 09:20:00,
2013-04-04 03:35:00,36.0,22.0,30.29,SSW,193,5.0,7.0,56,0.00,,,0.00,weatherlink.com 1.10,2013-04-04 09:35:00,
2013-04-04 03:50:00,35.7,22.0,30.29,SSE,157,7.0,9.0,57,0.00,,,0.00,weatherlink.com 1.10,2013-04-04 09:50:00,
2013-04-04 04:05:00,36.4,22.0,30.29,South,181,5.0,9.0,56,0.00,,,0.00,weatherlink.com 1.10,2013-04-04 10:05:00,
2013-04-04 04:20:00,36.2,22.0,30.29,SSW,195,7.0,8.0,56,0.00,,,0.00,weatherlink.com 1.10,2013-04-04 10:20:00,
2013-04-04 04:35:00,35.6,22.0,30.30,South,188,3.0,8.0,57,0.00,,,0.00,weatherlink.com 1.10,2013-04-04 10:35:00,
2013-04-04 04:50:00,35.0,22.0,30.30,SSW,196,4.0,7.0,59,0.00,,,0.00,weatherlink.com 1.10,2013-04-04 10:50:00,
2013-04-04 05:05:00,34.2,21.0,30.30,SSW,205,5.0,7.0,60,0.00,,,0.00,weatherlink.com 1.10,2013-04-04 11:05:00,
2013-04-04 05:20:00,33.9,22.0,30.30,SSW,197,5.0,7.0,61,0.00,,,0.00,weatherlink.com 1.10,2013-04-04 11:20:00,
2013-04-04 05:36:00,34.0,21.0,30.30,South,184,8.0,9.0,60,0.00,,,0.00,weatherlink.com 1.10,2013-04-04 11:36:00,
2013-04-04 05:51:00,34.6,21.0,30.30,South,174,7.0,10.0,59,0.00,,,0.00,weatherlink.com 1.10,2013-04-04 11:51:00,
2013-04-04 06:05:00,35.5,21.0,30.30,South,173,6.0,9.0,57,0.00,,,0.00,weatherlink.com 1.10,2013-04-04 12:05:00,
2013-04-04 06:21:00,35.7,21.0,30.30,SSE,168,4.0,10.0,56,0.00,,,0.00,weatherlink.com 1.10,2013-04-04 12:21:00,
2013-04-04 06:36:00,35.2,21.0,30.30,South,184,6.0,9.0,57,0.00,,,0.00,weatherlink.com 1.10,2013-04-04 12:36:00,
2013-04-04 06:51:00,34.5,21.0,30.30,South,175,7.0,7.0,57,0.00,,,0.00,weatherlink.com 1.10,2013-04-04 12:51:00,
2013-04-04 07:06:00,34.9,21.0,30.30,SSE,148,9.0,10.0,57,0.00,,,0.00,weatherlink.com 1.10,2013-04-04 13:06:00,
2013-04-04 07:21:00,36.3,21.0,30.30,SSW,194,6.0,12.0,54,0.00,,,0.00,weatherlink.com 1.10,2013-04-04 13:21:00,
2013-04-04 07:36:00,38.2,21.0,30.31,South,184,6.0,13.0,51,0.00,,,0.00,weatherlink.com 1.10,2013-04-04 13:36:00,
2013-04-04 08:06:00,40.4,21.0,30.31,SSE,167,6.0,12.0,46,0.00,,,0.00,weatherlink.com 1.10,2013-04-04 14:06:00,
2013-04-04 08:51:00,43.0,22.0,30.32,SSE,155,8.0,12.0,43,0.00,,,0.00,weatherlink.com 1.10,2013-04-04 14:51:00,
2013-04-04 09:06:00,44.2,22.0,30.32,SE,139,6.0,13.0,41,0.00,,,0.00,weatherlink.com 1.10,2013-04-04 15:06:00,
2013-04-04 09:21:00,47.3,22.0,30.32,SE,136,5.0,11.0,37,0.00,,,0.00,weatherlink.com 1.10,2013-04-04 15:21:00,
2013-04-04 09:36:00,48.8,23.0,30.32,South,171,8.0,10.0,36,0.00,,,0.00,weatherlink.com 1.10,2013-04-04 15:36:00,
2013-04-04 09:51:00,51.1,23.0,30.32,South,178,4.0,8.0,33,0.00,,,0.00,weatherlink.com 1.10,2013-04-04 15:51:00,
2013-04-04 10:06:00,52.6,23.0,30.32,ENE,71,2.0,8.0,32,0.00,,,0.00,weatherlink.com 1.10,2013-04-04 16:06:00,
2013-04-04 10:21:00,53.4,25.0,30.32,SE,142,7.0,8.0,33,0.00,,,0.00,weatherlink.com 1.10,2013-04-04 16:21:00,
2013-04-04 10:37:00,54.2,24.0,30.32,East,87,2.0,12.0,31,0.00,,,0.00,weatherlink.com 1.10,2013-04-04 16:37:00,
2013-04-04 10:52:00,53.9,24.0,30.32,NW,305,3.0,10.0,31,0.00,,,0.00,weatherlink.com 1.10,2013-04-04 16:52:00,
2013-04-04 11:07:00,55.4,22.0,30.32,SW,234,17.0,17.0,27,0.00,,,0.00,weatherlink.com 1.10,2013-04-04 17:07:00,
2013-04-04 11:22:00,56.2,23.0,30.32,West,265,3.0,14.0,28,0.00,,,0.00,weatherlink.com 1.10,2013-04-04 17:22:00,
2013-04-04 11:37:00,55.9,23.0,30.32,SW,219,9.0,13.0,28,0.00,,,0.00,weatherlink.com 1.10,2013-04-04 17:37:00,
2013-04-04 11:52:00,56.2,22.0,30.31,SSW,202,3.0,9.0,27,0.00,,,0.00,weatherlink.com 1.10,2013-04-04 17:52:00,
2013-04-04 12:07:00,57.0,23.0,30.31,NW,306,0.0,7.0,27,0.00,,,0.00,weatherlink.com 1.10,2013-04-04 18:07:00,
2013-04-04 12:22:00,57.5,23.0,30.31,West,263,3.0,11.0,26,0.00,,,0.00,weatherlink.com 1.10,2013-04-04 18:22:00,
2013-04-04 12:37:00,57.1,21.0,30.30,NW,316,4.0,12.0,25,0.00,,,0.00,weatherlink.com 1.10,2013-04-04 18:37:00,
2013-04-04 12:52:00,57.7,22.0,30.30,NW,304,5.0,12.0,25,0.00,,,0.00,weatherlink.com 1.10,2013-04-04 18:52:00,
2013-04-04 13:07:00,57.8,19.0,30.29,NW,316,6.0,15.0,22,0.00,,,0.00,weatherlink.com 1.10,2013-04-04 19:07:00,
2013-04-04 13:37:00,59.2,19.0,30.28,ESE,113,0.0,8.0,21,0.00,,,0.00,weatherlink.com 1.10,2013-04-04 19:37:00,
2013-04-04 14:01:00,58.7,21.0,30.27,South,173,6.0,12.0,23,0.00,,,0.00,weatherlink.com 1.10,2013-04-04 20:01:00,
2013-04-04 14:09:00,59.6,22.0,30.27,NW,311,5.0,9.0,23,0.00,,,0.00,weatherlink.com 1.10,2013-04-04 20:09:00,
2013-04-04 14:22:00,60.6,20.0,30.27,SW,226,3.0,18.0,21,0.00,,,0.00,weatherlink.com 1.10,2013-04-04 20:22:00,
2013-04-04 14:37:00,60.7,20.0,30.26,NNW,344,1.0,9.0,21,0.00,,,0.00,weatherlink.com 1.10,2013-04-04 20:37:00,
2013-04-04 14:52:00,61.0,24.0,30.26,West,276,8.0,10.0,24,0.00,,,0.00,weatherlink.com 1.10,2013-04-04 20:52:00,
2013-04-04 15:07:00,61.6,23.0,30.25,NNW,327,4.0,10.0,23,0.00,,,0.00,weatherlink.com 1.10,2013-04-04 21:07:00,
2013-04-04 15:22:00,60.3,21.0,30.25,West,274,8.0,14.0,22,0.00,,,0.00,weatherlink.com 1.10,2013-04-04 21:22:00,
2013-04-04 15:37:00,60.4,22.0,30.25,WSW,256,9.0,12.0,23,0.00,,,0.00,weatherlink.com 1.10,2013-04-04 21:37:00,
2013-04-04 15:52:00,61.3,22.0,30.24,West,277,4.0,8.0,22,0.00,,,0.00,weatherlink.com 1.10,2013-04-04 21:52:00,
2013-04-04 16:07:00,61.9,21.0,30.24,NW,312,11.0,11.0,21,0.00,,,0.00,weatherlink.com 1.10,2013-04-04 22:07:00,
2013-04-04 16:22:00,62.4,21.0,30.24,WNW,302,2.0,12.0,20,0.00,,,0.00,weatherlink.com 1.10,2013-04-04 22:22:00,
2013-04-04 16:37:00,62.2,20.0,30.23,NW,313,2.0,11.0,20,0.00,,,0.00,weatherlink.com 1.10,2013-04-04 22:37:00,
2013-04-04 16:52:00,62.0,19.0,30.23,WNW,285,1.0,12.0,19,0.00,,,0.00,weatherlink.com 1.10,2013-04-04 22:52:00,
2013-04-04 17:07:00,62.1,20.0,30.23,North,351,4.0,10.0,20,0.00,,,0.00,weatherlink.com 1.10,2013-04-04 23:07:00,
2013-04-04 17:22:00,61.2,20.0,30.23,NW,321,2.0,8.0,20,0.00,,,0.00,weatherlink.com 1.10,2013-04-04 23:22:00,
2013-04-04 17:37:00,60.2,21.0,30.23,NW,305,0.0,9.0,22,0.00,,,0.00,weatherlink.com 1.10,2013-04-04 23:37:00,
2013-04-04 17:52:00,60.0,21.0,30.23,WNW,293,0.0,10.0,22,0.00,,,0.00,weatherlink.com 1.10,2013-04-04 23:52:00,
2013-04-04 18:07:00,59.4,22.0,30.23,WNW,282,2.0,4.0,24,0.00,,,0.00,weatherlink.com 1.10,2013-04-05 00:07:00,
2013-04-04 18:22:00,58.3,22.0,30.23,NNW,333,1.0,6.0,25,0.00,,,0.00,weatherlink.com 1.10,2013-04-05 00:22:00,
2013-04-04 18:37:00,57.1,23.0,30.22,West,279,2.0,4.0,27,0.00,,,0.00,weatherlink.com 1.10,2013-04-05 00:37:00,
2013-04-04 18:52:00,56.5,24.0,30.23,WSW,252,0.0,5.0,29,0.00,,,0.00,weatherlink.com 1.10,2013-04-05 00:52:00,
2013-04-04 19:07:00,55.5,24.0,30.23,West,263,0.0,3.0,30,0.00,,,0.00,weatherlink.com 1.10,2013-04-05 01:07:00,
2013-04-04 19:22:00,54.6,27.0,30.22,West,264,0.0,0.0,35,0.00,,,0.00,weatherlink.com 1.10,2013-04-05 01:22:00,
2013-04-04 19:37:00,53.1,28.0,30.23,West,264,0.0,0.0,38,0.00,,,0.00,weatherlink.com 1.10,2013-04-05 01:37:00,
2013-04-04 19:52:00,51.2,26.0,30.23,West,271,4.0,5.0,37,0.00,,,0.00,weatherlink.com 1.10,2013-04-05 01:52:00,
2013-04-04 20:07:00,49.7,22.0,30.23,West,264,3.0,5.0,34,0.00,,,0.00,weatherlink.com 1.10,2013-04-05 02:07:00,
2013-04-04 20:22:00,48.8,24.0,30.23,West,264,0.0,4.0,38,0.00,,,0.00,weatherlink.com 1.10,2013-04-05 02:22:00,
2013-04-04 20:37:00,47.9,21.0,30.23,WSW,244,5.0,9.0,34,0.00,,,0.00,weatherlink.com 1.10,2013-04-05 02:37:00,
2013-04-04 20:52:00,49.3,20.0,30.23,SSE,155,10.0,12.0,32,0.00,,,0.00,weatherlink.com 1.10,2013-04-05 02:52:00,
2013-04-04 21:07:00,50.1,20.0,30.23,SW,225,5.0,14.0,30,0.00,,,0.00,weatherlink.com 1.10,2013-04-05 03:07:00,
2013-04-04 21:22:00,50.2,20.0,30.24,SSW,196,3.0,10.0,30,0.00,,,0.00,weatherlink.com 1.10,2013-04-05 03:22:00,
2013-04-04 21:37:00,49.8,23.0,30.24,SE,143,9.0,10.0,35,0.00,,,0.00,weatherlink.com 1.10,2013-04-05 03:37:00,
2013-04-04 21:52:00,49.4,23.0,30.24,SE,126,4.0,7.0,36,0.00,,,0.00,weatherlink.com 1.10,2013-04-05 03:52:00,
2013-04-04 22:07:00,48.7,22.0,30.24,SSE,165,4.0,9.0,35,0.00,,,0.00,weatherlink.com 1.10,2013-04-05 04:07:00,
2013-04-04 22:37:00,47.7,23.0,30.24,SE,140,1.0,4.0,38,0.00,,,0.00,weatherlink.com 1.10,2013-04-05 04:37:00,
2013-04-04 22:52:00,47.1,22.0,30.24,SE,136,0.0,5.0,38,0.00,,,0.00,weatherlink.com 1.10,2013-04-05 04:52:00,
2013-04-04 23:07:00,46.6,24.0,30.24,SE,136,4.0,4.0,41,0.00,,,0.00,weatherlink.com 1.10,2013-04-05 05:07:00,
2013-04-04 23:22:00,45.7,24.0,30.23,SE,136,1.0,4.0,43,0.00,,,0.00,weatherlink.com 1.10,2013-04-05 05:22:00,
2013-04-04 23:37:00,45.3,23.0,30.23,SE,136,1.0,4.0,42,0.00,,,0.00,weatherlink.com 1.10,2013-04-05 05:37:00,
2013-04-04 23:52:00,45.0,24.0,30.23,SE,136,1.0,4.0,43,0.00,,,0.00,weatherlink.com 1.10,2013-04-05 05:52:00,